Terminal Aerodrome Forecast
Issued by NWS

Home | Current Version | Previous Version | Text Only | Print | Product List | Glossary On
Versions: 1 2 3 4 5 6 7 8 9 10 11 12 13
075
FTPA31 PHFO 131120
TAFHOG
TAF
PHOG 131120Z 1312/1412 14004KT P6SM FEW035 FEW050
     FM132100 07013G22KT P6SM FEW035 SCT050
     FM140500 07009G14KT P6SM FEW035 SCT050=

USA.gov is the U.S. government's official web portal to all federal, state and local government web resources and services.